Time;durP1;ratioP1;P1;durP2;ratioP2;P2;SDS_P1;SDS_P2;PMS_P1;PMS_P2;Temp;Humidity;BMP_temperature;BMP_pressure;BME280_temperature;BME280_humidity;BME280_pressure;Samples;Min_cycle;Max_cycle;Signal;HPM_P1;HPM_P2
2022/10/29 00:00:45;;;;;;;26.13;13.77;;;15.50;85.30;;;;;;5003410;28;20460;-78
2022/10/29 00:03:13;;;;;;;25.50;12.20;;;15.50;85.30;;;;;;5009134;28;20454;-79
2022/10/29 00:05:42;;;;;;;22.83;11.20;;;15.40;85.20;;;;;;5006097;28;20488;-78
2022/10/29 00:08:10;;;;;;;26.23;10.70;;;15.40;85.20;;;;;;5006097;28;20454;-77
2022/10/29 00:10:38;;;;;;;19.90;10.60;;;15.40;85.20;;;;;;5004257;28;20457;-78
2022/10/29 00:13:06;;;;;;;17.53;9.67;;;15.40;85.30;;;;;;5008139;28;20464;-78
2022/10/29 00:15:34;;;;;;;16.27;8.00;;;15.40;85.30;;;;;;5020307;28;20474;-78
2022/10/29 00:18:02;;;;;;;16.60;9.10;;;15.50;85.30;;;;;;5005933;28;20531;-78
2022/10/29 00:20:30;;;;;;;15.97;8.57;;;15.50;85.30;;;;;;5011072;28;20510;-77
2022/10/29 00:22:59;;;;;;;17.80;8.20;;;15.50;85.20;;;;;;5024142;28;20464;-77
2022/10/29 00:25:27;;;;;;;16.47;7.60;;;15.50;85.10;;;;;;5005646;28;20479;-78
2022/10/29 00:27:56;;;;;;;15.90;7.40;;;15.40;85.10;;;;;;5005415;28;20538;-78
2022/10/29 00:30:24;;;;;;;15.93;7.67;;;15.50;85.00;;;;;;5005181;28;21085;-77
2022/10/29 00:32:52;;;;;;;13.93;7.13;;;15.40;85.00;;;;;;5004009;28;20485;-77
2022/10/29 00:35:20;;;;;;;17.23;8.00;;;15.40;84.90;;;;;;5003059;28;21057;-77
2022/10/29 00:37:48;;;;;;;18.83;9.97;;;15.30;84.90;;;;;;5001734;28;20467;-79
2022/10/29 00:40:18;;;;;;;20.53;9.90;;;15.30;85.00;;;;;;4998684;28;20464;-77
2022/10/29 00:42:46;;;;;;;16.57;8.30;;;15.30;85.10;;;;;;5000556;28;20457;-80
2022/10/29 00:45:19;;;;;;;16.00;8.17;;;15.30;85.10;;;;;;5000171;28;20485;-77
2022/10/29 00:47:51;;;;;;;18.57;9.20;;;15.30;85.20;;;;;;5002951;28;20457;-78
2022/10/29 00:50:23;;;;;;;25.00;9.63;;;15.30;85.20;;;;;;4998509;28;20897;-78
2022/10/29 00:52:53;;;;;;;16.20;8.73;;;15.30;85.20;;;;;;5003774;28;20457;-78
2022/10/29 00:55:22;;;;;;;21.63;9.00;;;15.30;85.20;;;;;;5002277;28;20484;-79
2022/10/29 00:57:53;;;;;;;17.57;9.60;;;15.30;85.10;;;;;;5002874;28;20550;-79
2022/10/29 01:00:23;;;;;;;17.57;9.77;;;15.30;85.10;;;;;;5001043;28;21516;-79
2022/10/29 01:02:51;;;;;;;15.13;8.40;;;15.30;85.00;;;;;;5000413;28;20449;-78
2022/10/29 01:05:21;;;;;;;19.77;8.60;;;15.30;85.00;;;;;;4996569;28;20477;-78
2022/10/29 01:07:49;;;;;;;12.57;7.10;;;15.30;84.90;;;;;;5003493;28;20507;-79
2022/10/29 01:10:27;;;;;;;12.93;6.53;;;15.30;84.90;;;;;;4999694;28;20460;-78
2022/10/29 01:13:08;;;;;;;14.97;7.57;;;15.30;84.80;;;;;;4999870;28;20453;-79
2022/10/29 01:15:44;;;;;;;14.47;6.73;;;15.20;84.80;;;;;;5001275;28;20478;-79
2022/10/29 01:18:20;;;;;;;15.27;6.93;;;15.20;84.60;;;;;;4996216;28;20965;-78
2022/10/29 01:21:24;;;;;;;11.37;7.20;;;15.10;84.50;;;;;;5001233;28;21138;-77
2022/10/29 01:24:35;;;;;;;12.97;7.23;;;15.10;84.50;;;;;;5000260;28;20459;-78
2022/10/29 01:27:31;;;;;;;11.33;7.07;;;15.00;84.50;;;;;;5000599;28;20468;-79
2022/10/29 01:30:10;;;;;;;14.33;8.40;;;15.00;84.50;;;;;;5000443;28;20457;-78
2022/10/29 01:32:51;;;;;;;12.10;6.03;;;14.90;84.50;;;;;;4998268;28;20449;-78
2022/10/29 01:35:28;;;;;;;13.17;6.90;;;14.90;84.60;;;;;;5001636;28;20478;-78
2022/10/29 01:38:07;;;;;;;14.07;6.47;;;14.90;84.60;;;;;;5010478;28;20479;-78
2022/10/29 01:40:42;;;;;;;11.50;6.27;;;14.90;84.60;;;;;;5005099;28;20534;-79
2022/10/29 01:43:16;;;;;;;15.33;6.60;;;14.90;84.60;;;;;;4997590;28;20459;-78
2022/10/29 01:45:49;;;;;;;13.60;7.17;;;14.90;84.50;;;;;;5002387;28;20483;-79
2022/10/29 01:48:23;;;;;;;16.30;7.03;;;14.90;84.50;;;;;;4998048;28;20453;-79
2022/10/29 01:51:00;;;;;;;13.73;7.40;;;14.90;84.30;;;;;;5019028;28;20541;-78
2022/10/29 01:53:29;;;;;;;14.93;7.33;;;14.90;84.20;;;;;;4996710;28;20493;-79
2022/10/29 01:55:57;;;;;;;17.30;9.37;;;14.80;84.20;;;;;;4996504;28;20470;-78
2022/10/29 01:58:25;;;;;;;26.13;11.37;;;14.80;84.20;;;;;;5003270;28;20452;-76
2022/10/29 02:01:05;;;;;;;19.60;10.60;;;14.80;84.10;;;;;;4997870;28;20474;-78
2022/10/29 02:03:45;;;;;;;15.50;9.17;;;14.80;84.20;;;;;;4994485;28;20478;-78
2022/10/29 02:06:20;;;;;;;18.70;11.40;;;14.70;84.20;;;;;;5016540;28;20481;-78
2022/10/29 02:08:56;;;;;;;17.93;9.70;;;14.80;84.20;;;;;;4996873;28;20449;-77
2022/10/29 02:11:31;;;;;;;20.10;9.70;;;14.80;84.10;;;;;;5001479;28;20464;-79
2022/10/29 02:14:05;;;;;;;22.20;9.30;;;14.70;84.10;;;;;;4999282;28;20457;-79
2022/10/29 02:16:34;;;;;;;16.80;9.30;;;14.70;84.10;;;;;;4996853;28;21443;-79
2022/10/29 02:19:05;;;;;;;22.17;8.63;;;14.70;84.10;;;;;;5002877;28;20499;-78
2022/10/29 02:21:33;;;;;;;15.70;7.80;;;14.70;84.10;;;;;;4999272;28;20796;-77
2022/10/29 02:24:01;;;;;;;22.10;8.20;;;14.70;84.00;;;;;;5003689;28;20452;-78
2022/10/29 02:26:29;;;;;;;13.20;5.73;;;14.70;84.00;;;;;;5017043;28;20844;-78
2022/10/29 02:28:57;;;;;;;14.07;7.50;;;14.70;83.90;;;;;;5007614;28;20504;-78
2022/10/29 02:31:26;;;;;;;13.50;6.27;;;14.70;83.80;;;;;;5004986;28;20464;-79
2022/10/29 02:33:54;;;;;;;12.27;6.50;;;14.70;83.80;;;;;;5007593;28;20467;-78
2022/10/29 02:36:23;;;;;;;11.97;6.27;;;14.60;83.80;;;;;;5001528;28;20476;-76
2022/10/29 02:38:51;;;;;;;15.03;7.30;;;14.60;83.80;;;;;;5004675;28;20460;-80
2022/10/29 02:41:19;;;;;;;12.30;7.57;;;14.60;83.70;;;;;;4999407;28;20469;-78
2022/10/29 02:43:47;;;;;;;13.23;6.40;;;14.60;83.70;;;;;;5007641;28;20457;-78
2022/10/29 02:46:16;;;;;;;11.53;6.60;;;14.50;83.70;;;;;;4998150;28;21027;-79
2022/10/29 02:48:44;;;;;;;15.30;6.20;;;14.50;83.60;;;;;;5004460;28;20511;-78
2022/10/29 02:51:13;;;;;;;17.93;6.33;;;14.50;83.60;;;;;;4997821;28;20454;-78
2022/10/29 02:53:42;;;;;;;15.93;6.37;;;14.50;83.60;;;;;;4999256;28;20460;-78
2022/10/29 02:56:10;;;;;;;12.17;7.13;;;14.40;83.60;;;;;;5002443;28;20564;-78
2022/10/29 02:58:38;;;;;;;14.17;6.80;;;14.40;83.60;;;;;;5001279;28;20457;-79
2022/10/29 03:01:06;;;;;;;13.23;6.37;;;14.50;83.60;;;;;;5004927;28;20492;-78
2022/10/29 03:03:35;;;;;;;15.43;7.03;;;14.40;83.50;;;;;;5014746;28;20543;-77
2022/10/29 03:06:04;;;;;;;13.47;5.83;;;14.40;83.50;;;;;;5005669;28;20574;-78
2022/10/29 03:08:32;;;;;;;12.60;5.90;;;14.40;83.50;;;;;;4999041;28;20457;-78
2022/10/29 03:11:01;;;;;;;14.33;7.03;;;14.40;83.50;;;;;;5000510;28;20527;-77
2022/10/29 03:13:29;;;;;;;13.80;6.17;;;14.40;83.50;;;;;;5001075;28;20457;-77
2022/10/29 03:15:57;;;;;;;13.80;6.13;;;14.40;83.50;;;;;;5009207;28;20481;-77
2022/10/29 03:18:25;;;;;;;15.60;6.27;;;14.40;83.40;;;;;;5022203;28;20502;-78
2022/10/29 03:20:53;;;;;;;11.50;5.10;;;14.40;83.40;;;;;;5004187;28;20559;-78
2022/10/29 03:23:22;;;;;;;11.80;5.20;;;14.40;83.30;;;;;;5015370;28;20470;-78
2022/10/29 03:25:52;;;;;;;13.73;5.50;;;14.40;83.20;;;;;;5002024;28;20484;-78
2022/10/29 03:28:26;;;;;;;10.07;6.30;;;14.30;83.20;;;;;;5000002;28;21434;-78
2022/10/29 03:30:54;;;;;;;11.00;5.73;;;14.30;83.20;;;;;;5001352;28;20448;-78
2022/10/29 03:33:24;;;;;;;10.67;5.70;;;14.30;83.20;;;;;;5003210;28;20463;-79
2022/10/29 03:35:57;;;;;;;20.17;6.13;;;14.30;83.10;;;;;;4999580;28;20484;-78
2022/10/29 03:38:25;;;;;;;13.60;5.53;;;14.30;83.10;;;;;;4999223;28;20482;-78
2022/10/29 03:40:53;;;;;;;11.90;5.90;;;14.30;83.10;;;;;;5000468;28;20527;-78
2022/10/29 03:43:22;;;;;;;19.43;6.50;;;14.20;83.10;;;;;;4998176;28;20468;-79
2022/10/29 03:45:52;;;;;;;11.60;5.83;;;14.20;83.10;;;;;;5007016;28;20485;-79
2022/10/29 03:48:20;;;;;;;12.80;5.57;;;14.20;83.10;;;;;;5000707;28;20550;-79
2022/10/29 03:50:55;;;;;;;15.03;6.40;;;14.20;83.10;;;;;;5000909;28;20483;-77
2022/10/29 03:53:23;;;;;;;14.93;5.63;;;14.20;83.20;;;;;;4998504;28;20460;-79
2022/10/29 03:55:51;;;;;;;10.60;5.90;;;14.20;83.20;;;;;;4999111;28;20472;-78
2022/10/29 03:58:20;;;;;;;11.87;6.20;;;14.20;83.10;;;;;;5000650;28;20986;-78
2022/10/29 04:00:58;;;;;;;15.50;6.00;;;14.20;83.00;;;;;;4999754;28;20481;-77
2022/10/29 04:03:27;;;;;;;16.97;6.67;;;14.10;83.00;;;;;;5000058;28;20481;-77
2022/10/29 04:05:56;;;;;;;18.60;6.77;;;14.10;83.00;;;;;;4998884;28;20532;-79
2022/10/29 04:08:24;;;;;;;19.93;7.90;;;14.10;83.10;;;;;;5001211;28;20453;-77
2022/10/29 04:10:52;;;;;;;15.40;6.50;;;14.10;83.10;;;;;;5001640;28;20456;-77
2022/10/29 04:13:21;;;;;;;15.00;5.73;;;14.10;83.00;;;;;;4995530;28;20469;-79
2022/10/29 04:15:49;;;;;;;12.80;6.63;;;14.10;83.00;;;;;;5002073;28;20505;-79
2022/10/29 04:18:18;;;;;;;12.10;6.07;;;14.10;83.00;;;;;;5000147;28;20448;-78
2022/10/29 04:20:46;;;;;;;15.47;6.70;;;14.10;83.00;;;;;;5005203;28;20485;-79
2022/10/29 04:23:34;;;;;;;12.23;5.80;;;14.10;83.00;;;;;;5000596;28;20540;-77
2022/10/29 04:26:22;;;;;;;10.83;5.93;;;14.10;83.00;;;;;;4998467;28;20488;-77
2022/10/29 04:29:10;;;;;;;12.10;5.97;;;14.00;83.00;;;;;;5007171;28;20522;-79
2022/10/29 04:31:38;;;;;;;16.93;6.40;;;14.00;82.90;;;;;;5017335;28;20453;-76
2022/10/29 04:34:07;;;;;;;9.67;5.33;;;14.00;83.00;;;;;;4999626;28;20523;-79
2022/10/29 04:36:35;;;;;;;19.00;5.90;;;14.10;83.00;;;;;;5002108;28;20477;-78
2022/10/29 04:39:03;;;;;;;14.87;5.47;;;14.10;82.90;;;;;;5000366;28;20445;-78
2022/10/29 04:41:32;;;;;;;16.00;6.33;;;14.10;82.80;;;;;;5002343;28;21068;-78
2022/10/29 04:44:00;;;;;;;12.57;6.20;;;14.00;82.70;;;;;;5000426;28;20456;-77
2022/10/29 04:46:28;;;;;;;11.40;6.33;;;14.00;82.70;;;;;;4999438;28;20473;-79
2022/10/29 04:48:56;;;;;;;14.10;5.83;;;14.00;82.70;;;;;;5003153;28;20515;-79
2022/10/29 04:51:27;;;;;;;12.10;5.30;;;14.00;82.70;;;;;;4997852;28;21045;-77
2022/10/29 04:53:54;;;;;;;9.77;5.17;;;14.00;82.70;;;;;;4997299;28;20492;-78
2022/10/29 04:56:23;;;;;;;10.97;5.73;;;14.00;82.70;;;;;;5003394;28;21048;-78
2022/10/29 04:58:52;;;;;;;15.70;5.97;;;14.00;82.60;;;;;;5000937;28;20464;-79
2022/10/29 05:01:20;;;;;;;10.10;5.53;;;14.00;82.60;;;;;;5000839;28;20473;-77
2022/10/29 05:03:48;;;;;;;15.60;5.50;;;14.00;82.60;;;;;;4999464;28;20483;-78
2022/10/29 05:06:16;;;;;;;11.63;5.90;;;14.00;82.60;;;;;;4998563;28;20501;-78
2022/10/29 05:08:45;;;;;;;13.47;5.93;;;13.90;82.60;;;;;;5003419;28;20480;-79
2022/10/29 05:11:13;;;;;;;13.53;5.70;;;13.90;82.50;;;;;;5000128;28;20449;-77
2022/10/29 05:13:42;;;;;;;11.43;5.17;;;13.90;82.50;;;;;;4996689;28;20459;-77
2022/10/29 05:16:10;;;;;;;13.80;5.33;;;13.90;82.50;;;;;;5001395;28;20570;-77
2022/10/29 05:18:38;;;;;;;14.80;6.27;;;13.90;82.40;;;;;;5000870;28;20472;-79
2022/10/29 05:21:06;;;;;;;15.53;5.60;;;13.90;82.30;;;;;;5000787;28;20755;-80
2022/10/29 05:23:34;;;;;;;12.87;5.43;;;13.80;82.30;;;;;;5002531;28;20464;-77
2022/10/29 05:26:04;;;;;;;10.43;5.43;;;13.80;82.30;;;;;;4999569;28;20485;-78
2022/10/29 05:28:32;;;;;;;11.10;6.00;;;13.80;82.30;;;;;;4995880;28;20465;-78
2022/10/29 05:31:01;;;;;;;9.57;5.07;;;13.80;82.30;;;;;;5002259;28;20448;-78
2022/10/29 05:33:29;;;;;;;12.37;5.30;;;13.80;82.30;;;;;;5010932;28;20914;-78
2022/10/29 05:35:59;;;;;;;9.77;5.17;;;13.80;82.30;;;;;;5002140;28;20485;-76
2022/10/29 05:38:27;;;;;;;13.17;6.37;;;13.80;82.30;;;;;;5015144;28;20951;-80
2022/10/29 05:40:57;;;;;;;15.67;7.03;;;13.80;82.30;;;;;;4999955;28;20489;-79
2022/10/29 05:43:27;;;;;;;10.50;5.73;;;13.80;82.40;;;;;;5000764;28;20503;-77
2022/10/29 05:45:55;;;;;;;14.53;5.97;;;13.80;82.30;;;;;;4998758;28;20473;-79
2022/10/29 05:48:23;;;;;;;10.70;6.60;;;13.80;82.30;;;;;;4999143;28;20539;-78
2022/10/29 05:50:51;;;;;;;13.70;6.90;;;13.80;82.30;;;;;;4999846;28;20458;-77
2022/10/29 05:53:19;;;;;;;11.47;6.13;;;13.80;82.40;;;;;;4994425;28;20968;-77
2022/10/29 05:55:47;;;;;;;11.10;5.47;;;13.80;82.40;;;;;;4999483;28;20484;-79
2022/10/29 05:58:15;;;;;;;13.20;6.47;;;13.80;82.40;;;;;;5004040;28;20452;-79
2022/10/29 06:00:45;;;;;;;18.17;6.80;;;13.90;82.30;;;;;;5004220;28;20560;-78
2022/10/29 06:03:15;;;;;;;15.60;5.53;;;13.90;82.30;;;;;;5004148;28;20480;-78
2022/10/29 06:05:43;;;;;;;11.73;5.30;;;13.80;82.30;;;;;;5005347;28;20472;-78
2022/10/29 06:08:11;;;;;;;15.77;5.80;;;13.80;82.30;;;;;;5004064;28;20507;-79
2022/10/29 06:10:39;;;;;;;14.03;5.60;;;13.80;82.30;;;;;;5002560;28;20824;-78
2022/10/29 06:13:11;;;;;;;17.03;6.70;;;13.80;82.40;;;;;;5026706;28;20469;-79
2022/10/29 06:15:39;;;;;;;13.30;7.37;;;13.90;82.40;;;;;;5006940;28;20475;-79
2022/10/29 06:18:09;;;;;;;13.23;6.40;;;13.90;82.40;;;;;;5007297;28;20459;-79
2022/10/29 06:20:38;;;;;;;13.90;6.30;;;13.90;82.50;;;;;;5004124;28;20536;-79
2022/10/29 06:23:06;;;;;;;10.00;5.80;;;13.90;82.50;;;;;;5023448;28;20509;-79
2022/10/29 06:25:34;;;;;;;11.20;5.23;;;13.90;82.50;;;;;;5002396;28;20484;-78
2022/10/29 06:28:04;;;;;;;14.13;5.50;;;13.90;82.50;;;;;;5005158;28;20456;-78
2022/10/29 06:30:34;;;;;;;9.50;5.33;;;13.90;82.50;;;;;;5006407;28;20457;-78
2022/10/29 06:33:02;;;;;;;8.20;4.80;;;13.90;82.50;;;;;;5002170;28;20447;-78
2022/10/29 06:35:32;;;;;;;10.90;4.67;;;14.00;82.50;;;;;;5003045;28;20891;-79
2022/10/29 06:38:05;;;;;;;10.93;4.67;;;14.00;82.50;;;;;;5012447;28;20848;-77
2022/10/29 06:40:37;;;;;;;7.50;4.13;;;14.00;82.60;;;;;;5013067;28;21024;-77
2022/10/29 06:43:07;;;;;;;6.00;4.00;;;14.00;82.60;;;;;;5007498;28;20993;-77
2022/10/29 06:45:36;;;;;;;7.47;3.87;;;14.10;82.70;;;;;;5012668;28;20862;-78
2022/10/29 06:48:04;;;;;;;8.63;4.73;;;14.10;82.70;;;;;;5012289;28;20485;-77
2022/10/29 06:50:34;;;;;;;7.57;3.87;;;14.10;82.80;;;;;;5008524;28;20485;-78
2022/10/29 06:53:04;;;;;;;6.00;3.23;;;14.10;82.80;;;;;;5011403;28;20453;-78
2022/10/29 06:55:33;;;;;;;7.37;3.57;;;14.10;82.80;;;;;;5018425;28;20530;-78
2022/10/29 06:58:02;;;;;;;4.93;3.37;;;14.20;82.90;;;;;;5006417;28;20523;-78
2022/10/29 07:00:31;;;;;;;6.13;3.57;;;14.20;82.90;;;;;;5003983;28;20453;-78
2022/10/29 07:03:00;;;;;;;6.67;3.50;;;14.20;83.00;;;;;;5003337;28;20511;-78
2022/10/29 07:05:28;;;;;;;5.00;3.30;;;14.20;83.00;;;;;;5004511;28;21037;-78
2022/10/29 07:07:58;;;;;;;6.00;3.27;;;14.20;83.00;;;;;;5005868;28;20467;-78
2022/10/29 07:10:28;;;;;;;6.40;4.10;;;14.20;83.10;;;;;;5003453;28;20468;-77
2022/10/29 07:12:56;;;;;;;5.50;3.50;;;14.30;83.10;;;;;;5017341;28;20479;-76
2022/10/29 07:15:24;;;;;;;5.50;3.20;;;14.30;83.10;;;;;;5001200;28;20999;-77
2022/10/29 07:17:57;;;;;;;6.50;3.80;;;14.30;83.20;;;;;;5001243;28;20461;-76
2022/10/29 07:20:26;;;;;;;6.67;3.90;;;14.30;83.20;;;;;;5001993;28;21280;-79
2022/10/29 07:22:56;;;;;;;6.30;3.73;;;14.30;83.30;;;;;;5000260;28;20472;-77
2022/10/29 07:25:26;;;;;;;7.30;4.30;;;14.30;83.30;;;;;;5000360;28;20483;-79
2022/10/29 07:27:54;;;;;;;7.00;4.17;;;14.40;83.30;;;;;;4999381;28;21290;-79
2022/10/29 07:30:22;;;;;;;5.23;3.70;;;14.40;83.40;;;;;;5003125;28;20464;-77
2022/10/29 07:32:50;;;;;;;6.70;4.00;;;14.40;83.40;;;;;;4997247;28;20459;-77
2022/10/29 07:35:18;;;;;;;8.40;3.70;;;14.40;83.40;;;;;;4999714;28;20549;-79
2022/10/29 07:37:46;;;;;;;10.17;3.77;;;14.50;83.50;;;;;;5001223;28;20468;-77
2022/10/29 07:40:14;;;;;;;7.10;4.30;;;14.50;83.50;;;;;;5001381;28;20461;-77
2022/10/29 07:42:43;;;;;;;5.70;3.77;;;14.50;83.60;;;;;;5000960;28;20465;-77
2022/10/29 07:45:11;;;;;;;7.37;4.20;;;14.50;83.60;;;;;;5002766;28;20485;-79
2022/10/29 07:47:41;;;;;;;10.57;4.30;;;14.50;83.70;;;;;;4999082;28;21074;-79
2022/10/29 07:50:10;;;;;;;9.00;3.97;;;14.50;83.70;;;;;;5003794;28;20962;-78
2022/10/29 07:52:38;;;;;;;9.47;3.53;;;14.60;83.70;;;;;;4998619;28;20473;-79
2022/10/29 07:55:07;;;;;;;13.17;4.63;;;14.60;83.80;;;;;;4999154;28;20475;-79
2022/10/29 07:57:35;;;;;;;7.30;3.87;;;14.60;83.80;;;;;;4999962;28;20475;-78
2022/10/29 08:00:05;;;;;;;38.00;5.27;;;14.60;83.90;;;;;;4997739;28;20447;-77
2022/10/29 08:02:39;;;;;;;20.57;5.43;;;14.60;83.90;;;;;;4997795;28;20457;-79
2022/10/29 08:05:08;;;;;;;8.27;4.10;;;14.70;83.90;;;;;;4999327;28;20523;-77
2022/10/29 08:07:35;;;;;;;6.00;3.60;;;14.70;83.90;;;;;;4998213;28;21023;-79
2022/10/29 08:10:04;;;;;;;6.87;4.40;;;14.70;83.90;;;;;;4995747;28;21025;-79
2022/10/29 08:12:32;;;;;;;7.80;4.37;;;14.70;84.00;;;;;;5002862;28;20453;-78
2022/10/29 08:14:59;;;;;;;6.70;4.40;;;14.80;84.00;;;;;;4998150;28;20477;-78
2022/10/29 08:17:30;;;;;;;11.20;4.40;;;14.80;84.00;;;;;;4997278;28;20476;-78
2022/10/29 08:19:58;;;;;;;6.70;4.17;;;14.80;84.10;;;;;;5013775;28;20499;-78
2022/10/29 08:22:26;;;;;;;9.53;4.27;;;14.80;84.10;;;;;;5003921;28;20488;-77
2022/10/29 08:24:54;;;;;;;14.47;4.93;;;14.90;84.20;;;;;;5002521;28;20481;-78
2022/10/29 08:27:22;;;;;;;11.20;5.73;;;14.90;84.20;;;;;;4997341;28;21374;-79
2022/10/29 08:29:50;;;;;;;12.87;5.40;;;14.90;84.30;;;;;;4996430;28;20481;-78
2022/10/29 08:32:18;;;;;;;7.97;4.87;;;14.90;84.30;;;;;;5015303;28;20460;-79
2022/10/29 08:34:47;;;;;;;10.47;5.10;;;15.00;84.30;;;;;;4999497;28;20485;-79
2022/10/29 08:37:15;;;;;;;8.90;4.80;;;15.00;84.40;;;;;;5013862;28;20469;-77
2022/10/29 08:39:43;;;;;;;9.77;4.80;;;15.00;84.50;;;;;;4995387;28;20526;-77
2022/10/29 08:42:27;;;;;;;11.90;5.80;;;15.00;84.60;;;;;;4995670;28;20515;-79
2022/10/29 08:45:12;;;;;;;19.27;6.10;;;15.10;84.60;;;;;;4997681;28;20939;-79
2022/10/29 08:47:58;;;;;;;17.27;6.40;;;15.10;84.70;;;;;;5018530;28;20825;-79
2022/10/29 08:50:32;;;;;;;10.20;5.83;;;15.20;84.80;;;;;;5002287;28;20504;-77
2022/10/29 08:53:02;;;;;;;9.53;5.20;;;15.20;84.80;;;;;;4999387;28;20453;-77
2022/10/29 08:55:50;;;;;;;11.23;5.50;;;15.20;84.80;;;;;;4999452;28;20848;-77
2022/10/29 08:58:27;;;;;;;10.77;5.13;;;15.30;84.90;;;;;;5016523;28;20490;-77
2022/10/29 09:00:57;;;;;;;12.70;5.30;;;15.30;84.90;;;;;;4998938;28;20450;-77
2022/10/29 09:03:28;;;;;;;8.20;5.20;;;15.30;85.00;;;;;;4998890;28;20471;-77
2022/10/29 09:06:09;;;;;;;10.23;5.13;;;15.40;85.00;;;;;;5005506;28;21014;-78
2022/10/29 09:08:53;;;;;;;14.67;5.67;;;15.40;85.10;;;;;;5000685;28;20449;-77
2022/10/29 09:11:35;;;;;;;9.87;5.90;;;15.40;85.10;;;;;;5002245;28;20455;-77
2022/10/29 09:14:27;;;;;;;166.40;28.50;;;15.50;85.20;;;;;;5002807;28;20449;-78
2022/10/29 09:17:01;;;;;;;140.60;26.20;;;15.50;85.30;;;;;;5004636;28;20462;-77
2022/10/29 09:19:41;;;;;;;68.13;16.60;;;15.60;85.50;;;;;;4998724;28;20512;-79
2022/10/29 09:22:17;;;;;;;169.33;30.10;;;15.70;85.60;;;;;;4999844;28;20453;-79
2022/10/29 09:24:55;;;;;;;107.30;24.60;;;15.80;85.70;;;;;;5003422;28;20491;-78
2022/10/29 09:27:29;;;;;;;78.77;18.30;;;15.80;85.80;;;;;;4994960;28;20508;-78
2022/10/29 09:30:05;;;;;;;58.17;13.33;;;15.90;85.80;;;;;;4998400;28;20484;-76
2022/10/29 09:32:38;;;;;;;29.10;9.87;;;16.00;85.90;;;;;;4998473;28;20461;-77
2022/10/29 09:35:13;;;;;;;22.23;7.53;;;16.00;85.80;;;;;;5010766;28;20493;-79
2022/10/29 09:37:48;;;;;;;18.70;7.77;;;16.10;85.80;;;;;;5004338;28;20475;-79
2022/10/29 09:40:27;;;;;;;21.13;7.90;;;16.10;85.80;;;;;;5011486;28;20476;-77
2022/10/29 09:42:58;;;;;;;25.47;9.70;;;16.10;85.80;;;;;;5000202;28;20487;-77
2022/10/29 09:45:36;;;;;;;38.20;10.93;;;16.20;85.90;;;;;;5019910;28;21122;-77
2022/10/29 09:48:11;;;;;;;14.13;6.33;;;16.20;85.90;;;;;;5001921;28;20444;-78
2022/10/29 09:50:46;;;;;;;9.70;5.47;;;16.20;85.90;;;;;;5000480;28;20467;-78
2022/10/29 09:53:15;;;;;;;10.73;6.20;;;16.30;85.90;;;;;;5000503;28;20488;-78
2022/10/29 09:55:45;;;;;;;28.43;10.20;;;16.30;85.90;;;;;;4999500;28;20503;-77
2022/10/29 09:58:19;;;;;;;32.43;10.10;;;16.30;86.00;;;;;;5003082;28;20464;-79
2022/10/29 10:00:47;;;;;;;35.77;9.17;;;16.40;86.10;;;;;;5002353;28;20983;-78
2022/10/29 10:03:20;;;;;;;42.33;11.80;;;16.40;86.20;;;;;;4996144;28;20486;-79
2022/10/29 10:06:00;;;;;;;33.70;9.80;;;16.50;86.20;;;;;;4995655;28;21255;-78
2022/10/29 10:08:30;;;;;;;31.27;9.73;;;16.50;86.20;;;;;;4998325;28;20462;-79
2022/10/29 10:11:00;;;;;;;26.83;8.40;;;16.60;86.20;;;;;;5000051;28;20452;-78
2022/10/29 10:13:30;;;;;;;27.90;8.00;;;16.60;86.20;;;;;;4998403;28;20454;-78
2022/10/29 10:15:59;;;;;;;18.60;7.67;;;16.70;86.20;;;;;;4996674;28;20493;-77
2022/10/29 10:18:39;;;;;;;18.13;7.10;;;16.70;86.20;;;;;;5013287;28;20491;-78
2022/10/29 10:21:10;;;;;;;14.20;6.70;;;16.70;86.20;;;;;;5017865;28;20843;-79
2022/10/29 10:23:45;;;;;;;14.57;6.90;;;16.80;86.20;;;;;;4994027;28;20525;-79
2022/10/29 10:26:35;;;;;;;10.60;6.50;;;16.80;86.20;;;;;;4995043;28;21278;-78
2022/10/29 10:29:21;;;;;;;18.00;7.37;;;16.80;86.20;;;;;;4999691;28;20449;-78
2022/10/29 10:31:50;;;;;;;16.47;6.60;;;16.80;86.20;;;;;;5001139;28;20507;-78
2022/10/29 10:34:20;;;;;;;12.77;6.63;;;16.80;86.20;;;;;;5016201;28;20460;-78
2022/10/29 10:36:51;;;;;;;20.60;7.43;;;16.80;86.30;;;;;;4999726;28;20476;-77
2022/10/29 10:39:28;;;;;;;17.07;7.00;;;16.80;86.30;;;;;;4995223;28;20453;-78
2022/10/29 10:41:59;;;;;;;15.67;6.90;;;16.90;86.40;;;;;;4998942;28;20453;-78
2022/10/29 10:44:27;;;;;;;15.00;8.80;;;16.90;86.40;;;;;;5001004;28;20468;-78
2022/10/29 10:46:58;;;;;;;11.90;6.57;;;16.90;86.40;;;;;;4997938;28;20449;-79
2022/10/29 10:49:31;;;;;;;13.10;6.10;;;16.90;86.40;;;;;;5003333;28;20456;-77
2022/10/29 10:52:03;;;;;;;17.40;7.23;;;17.00;86.40;;;;;;5005425;28;21431;-78
2022/10/29 10:54:36;;;;;;;29.13;8.77;;;17.00;86.50;;;;;;5003415;28;20467;-78
2022/10/29 10:57:19;;;;;;;20.43;8.40;;;17.10;86.50;;;;;;5000814;28;20455;-78
2022/10/29 11:00:02;;;;;;;20.67;10.33;;;17.10;86.60;;;;;;5006085;28;20460;-79
2022/10/29 11:02:37;;;;;;;15.27;8.10;;;17.20;86.70;;;;;;5002295;28;20456;-78
2022/10/29 11:05:16;;;;;;;14.77;8.73;;;17.20;86.70;;;;;;5009620;28;20547;-78
2022/10/29 11:07:50;;;;;;;15.73;9.83;;;17.30;86.80;;;;;;5004631;28;20839;-79
2022/10/29 11:10:27;;;;;;;27.00;10.37;;;17.30;86.80;;;;;;4990534;28;20990;-78
2022/10/29 11:12:56;;;;;;;22.33;10.87;;;17.40;86.90;;;;;;5002383;28;20440;-78
2022/10/29 11:15:32;;;;;;;21.43;9.87;;;17.50;86.90;;;;;;4999478;28;20485;-79
2022/10/29 11:18:10;;;;;;;16.13;8.53;;;17.60;87.00;;;;;;5000354;28;20456;-78
2022/10/29 11:20:44;;;;;;;16.50;7.97;;;17.70;86.90;;;;;;5000770;28;20514;-78
2022/10/29 11:23:29;;;;;;;25.73;6.70;;;17.80;86.80;;;;;;5006471;28;20958;-78
2022/10/29 11:26:06;;;;;;;15.70;6.80;;;17.90;86.90;;;;;;5003096;28;20478;-77
2022/10/29 11:28:39;;;;;;;13.07;6.57;;;18.00;87.10;;;;;;5002763;28;20468;-78
2022/10/29 11:31:16;;;;;;;13.10;6.30;;;18.10;87.10;;;;;;4999003;28;20468;-77
2022/10/29 11:33:52;;;;;;;16.10;6.70;;;18.10;87.00;;;;;;5019256;28;21179;-78
2022/10/29 11:36:23;;;;;;;14.50;5.43;;;18.20;87.10;;;;;;5007500;28;20481;-76
2022/10/29 11:38:57;;;;;;;17.30;6.03;;;18.30;87.00;;;;;;5005869;28;20449;-76
2022/10/29 11:41:34;;;;;;;14.83;6.17;;;18.40;86.90;;;;;;5003012;28;20465;-78
2022/10/29 11:44:02;;;;;;;12.43;4.90;;;18.60;86.80;;;;;;5004534;28;20477;-77
2022/10/29 11:46:39;;;;;;;17.60;6.53;;;18.60;86.70;;;;;;5001732;28;21160;-78
2022/10/29 11:49:22;;;;;;;19.97;5.00;;;18.70;86.50;;;;;;5003923;28;20452;-77
2022/10/29 11:52:00;;;;;;;11.87;5.03;;;18.90;86.30;;;;;;5004681;28;20458;-78
2022/10/29 11:54:40;;;;;;;13.07;4.60;;;19.00;86.20;;;;;;5003547;28;20460;-77
2022/10/29 11:57:15;;;;;;;14.83;4.80;;;19.10;86.00;;;;;;5003595;28;21157;-77
2022/10/29 12:00:09;;;;;;;16.73;5.70;;;19.20;85.80;;;;;;5008002;28;20462;-77
2022/10/29 12:02:52;;;;;;;18.53;5.67;;;19.30;85.50;;;;;;5001990;28;20818;-77
2022/10/29 12:05:28;;;;;;;14.27;4.43;;;19.30;85.30;;;;;;5000576;28;20501;-78
2022/10/29 12:08:09;;;;;;;17.67;4.97;;;19.40;85.00;;;;;;5002222;28;20451;-77
2022/10/29 12:10:45;;;;;;;17.70;5.60;;;19.50;84.70;;;;;;5003324;28;20455;-78
2022/10/29 12:13:24;;;;;;;16.30;4.60;;;19.50;84.60;;;;;;5004487;28;20464;-78
2022/10/29 12:16:05;;;;;;;11.93;4.03;;;19.50;84.20;;;;;;4996943;28;20528;-79
2022/10/29 12:18:42;;;;;;;14.53;5.10;;;19.60;84.00;;;;;;4997622;28;20595;-78
2022/10/29 12:21:18;;;;;;;16.97;5.13;;;19.70;83.70;;;;;;5004841;28;20458;-77
2022/10/29 12:23:56;;;;;;;13.63;5.20;;;19.70;83.30;;;;;;5002833;28;20458;-79
2022/10/29 12:26:30;;;;;;;14.10;5.00;;;19.70;83.10;;;;;;5013732;28;20483;-75
2022/10/29 12:29:08;;;;;;;19.23;5.57;;;19.80;82.90;;;;;;5004065;28;20500;-76
2022/10/29 12:31:42;;;;;;;13.80;5.93;;;19.80;82.70;;;;;;5002119;28;20488;-78
2022/10/29 12:34:17;;;;;;;15.23;5.03;;;19.90;82.60;;;;;;5004457;28;21060;-78
2022/10/29 12:36:54;;;;;;;14.50;5.00;;;19.90;82.20;;;;;;4997296;28;20473;-78
2022/10/29 12:39:29;;;;;;;13.13;5.50;;;20.00;82.00;;;;;;5020440;28;20900;-78
2022/10/29 12:42:01;;;;;;;12.43;4.70;;;20.00;81.90;;;;;;4997950;28;20452;-76
2022/10/29 12:44:37;;;;;;;15.00;5.47;;;20.10;81.80;;;;;;5006812;28;20480;-78
2022/10/29 12:47:16;;;;;;;13.50;5.53;;;20.10;81.60;;;;;;4998345;28;20567;-78
2022/10/29 12:49:58;;;;;;;19.43;5.60;;;20.20;81.40;;;;;;4997320;28;20830;-76
2022/10/29 12:52:32;;;;;;;15.03;5.33;;;20.20;81.20;;;;;;4997982;28;20460;-78
2022/10/29 12:55:02;;;;;;;17.63;5.40;;;20.20;81.00;;;;;;5015892;28;20497;-78
2022/10/29 12:57:33;;;;;;;15.23;5.03;;;20.20;81.00;;;;;;5000537;28;20451;-77
2022/10/29 13:00:43;;;;;;;14.23;4.60;;;20.30;80.90;;;;;;5007197;28;20457;-78
2022/10/29 13:03:11;;;;;;;18.27;4.73;;;20.30;80.80;;;;;;5006378;28;20453;-80